Nearby METAR Reports

 

KLWM - Lawrence,MA, USA
Distance from station: NE 12mi, 19km
Updated: Thu, 17-Aug-2017 8:54am EDT
Clear
Clear
 Wind from SW
Wind: SW 6 mph , 9 km/h
Temperature: 68°F , 20°C
Dew Point: 52°F , 11°C
Humidity: 56%
Barometer: 30.09 inHg , 1019 hPa
Clouds: Clear
Visibility: 10 miles , 16 km
2017/08/17 12:54 KLWM 171254Z 23005KT 10SM CLR 20/11 A3009 RMK AO2 SLP188 T02000106
KBED - Bedford,MA, USA
Distance from station: SSE 12mi, 19km
Updated: Thu, 17-Aug-2017 8:56am EDT
Clear
Clear
 Wind from W
Wind: W 5 mph , 7 km/h
Temperature: 66°F , 19°C
Dew Point: 52°F , 11°C
Humidity: 60%
Barometer: 30.06 inHg , 1017.9 hPa
Clouds: Clear
Visibility: 10 miles , 16 km
2017/08/17 12:56 KBED 171256Z 27004KT 10SM CLR 19/11 A3006 RMK AO2 SLP191 T01940106

Metar display script from Saratoga-Weather.org